Terminal Aerodrome Forecast
Issued by NWS

Home | Current Version | Previous Version | Text Only | Print | Product List | Glossary On
Versions: 1 2 3 4 5 6 7 8 9 10 11 12 13 14 15 16 17 18 19 20 21 22 23 24
880
FTUS45 KRIW 240540
TAFRKS
TAF
KRKS 240540Z 2406/2506 25014G20KT 5SM -SN SCT015 OVC030
     FM240900 05010G15KT 4SM -SN SCT015 OVC030
      TEMPO 2409/2413 2SM -SN OVC015
     FM241300 08011KT 5SM -SN BR SCT015 OVC030
     FM242100 09006KT P6SM VCSH SCT015 OVC025
     FM250300 VRB05KT P6SM -SN OVC030=

USA.gov is the U.S. government's official web portal to all federal, state and local government web resources and services.